Kealakekua, HI (96750)

4:25 AM HST on July 28, 2015 (GMT -1000)
KEE KEE st Neighborhood | | Change Station
CLOSE
Current Station
Personal Weather Station
Location: Kealakekua, HI
Elevation: 1388 ft
Nearby Weather Stations
Active Advisory: High Surf Advisory Active Notice: Record Report

Elev 1388 ft 19.51 °N, 155.93 °W | Updated 39 seconds ago

Clear
Clear
70.0 °F
Feels Like 70.0 °F
N
3.4
Wind Variable Wind from East
Gusts 4.9 mph

Today
High -- | Low -- °F
--% Chance of Precip.
Yesterday
High -- | Low -- °F
Precip. -- in
5:58 AM 7:01 PM
Waxing Gibbous, 90% visible
Pressure 29.89 in
Visibility 10.0 miles
Clouds Clear
Dew Point 63 °F
Humidity 79%
Rainfall 0.00 in
Snow Depth Not available.
UV 0.0 out of 12
Pollen Not available.
Air Quality Not available.
Flu Activity Not available.
METAR PHKO 281353Z AUTO 10003KT 10SM CLR 26/22 A2989 RMK AO2 SLP121 T02610217 TSNO

More Conditions Fewer Conditions

Pressure 29.89 in
Visibility 10.0 miles
Clouds Clear
Dew Point 63 °F
Humidity 79%
Rainfall 0.00 in
Snow Depth Not available.
UV 0.0 out of 12
Pollen Not available.
Air Quality Not available.
Flu Activity Not available.
METAR PHKO 281353Z AUTO 10003KT 10SM CLR 26/22 A2989 RMK AO2 SLP121 T02610217 TSNO

More Conditions Fewer Conditions

10-Day Weather Forecast

×

Almanac

Astronomy

Jul. 28, 2015 Rise Set
Actual Time
Civil Twilight
Nautical Twilight
Astronomical Twilight
Moon
Length of Visible Light
Length of Day
Tomorrow will be .
, % of the Moon is Illuminated

Today's Extremes

State Highs State Lows

Community

WunderPhotos

Upload Photos

1,841,836 photos uploaded!

WunderBlogs® & News

Nearby

Air Quality

  Air Quality AQ Index Pollutant
Not available.

Snow Depth

Station Depth Elevation

Earthquake Activity

City Distance Mag. Time & Date
Minimum magnitude displayed is 2.5.

Coastal Water Temperatures

Place Temperature

Stations

Nearby Weather Stations

Station Location Temp. Windchill Dew Point Humidity Wind Precip. Elev Updated Type
                   
High Surf Advisory
Statement as of 3:34 AM HST on July 28, 2015

... High surf advisory now in effect until 6 PM HST this evening...

The high surf advisory is now in effect until 6 PM HST this
evening.

* Surf... along south facing shores of all islands... 6 to 9 feet.

* Timing... through this afternoon.

* Impacts... moderate... expect strong breaking waves... shore
break... and strong longshore and rip currents making swimming
difficult and dangerous.

Precautionary/preparedness actions...

Beachgoers... swimmers... and surfers should heed all advice given
by ocean safety officials and exercise caution. Know your
limits... when in doubt... do not go out.